sensor_id;sensor_type;location;lat;lon;timestamp;temperature;humidity
42245;DHT22;27912;51.828;5.688;2023-07-31T00:00:00;15.40;99.90
42245;DHT22;27912;51.828;5.688;2023-07-31T00:02:26;15.40;99.90
42245;DHT22;27912;51.828;5.688;2023-07-31T00:04:51;15.50;99.90
42245;DHT22;27912;51.828;5.688;2023-07-31T00:07:17;15.50;99.90
42245;DHT22;27912;51.828;5.688;2023-07-31T00:09:43;15.50;99.90
42245;DHT22;27912;51.828;5.688;2023-07-31T00:12:08;15.60;99.90
42245;DHT22;27912;51.828;5.688;2023-07-31T00:14:34;15.60;99.90
42245;DHT22;27912;51.828;5.688;2023-07-31T00:17:00;15.70;99.90
42245;DHT22;27912;51.828;5.688;2023-07-31T00:19:25;15.70;99.90
42245;DHT22;27912;51.828;5.688;2023-07-31T00:21:51;15.90;99.90
42245;DHT22;27912;51.828;5.688;2023-07-31T00:24:16;15.90;99.90
42245;DHT22;27912;51.828;5.688;2023-07-31T00:26:42;16.10;99.90
42245;DHT22;27912;51.828;5.688;2023-07-31T00:29:07;16.10;99.90
42245;DHT22;27912;51.828;5.688;2023-07-31T00:31:33;16.20;99.90
42245;DHT22;27912;51.828;5.688;2023-07-31T00:33:59;16.30;99.90
42245;DHT22;27912;51.828;5.688;2023-07-31T00:36:25;16.40;99.90
42245;DHT22;27912;51.828;5.688;2023-07-31T00:38:50;16.40;99.90
42245;DHT22;27912;51.828;5.688;2023-07-31T00:41:16;16.40;99.90
42245;DHT22;27912;51.828;5.688;2023-07-31T00:43:41;16.40;99.90
42245;DHT22;27912;51.828;5.688;2023-07-31T00:46:07;16.50;99.90
42245;DHT22;27912;51.828;5.688;2023-07-31T00:48:33;16.50;99.90
42245;DHT22;27912;51.828;5.688;2023-07-31T00:50:59;16.50;99.90
42245;DHT22;27912;51.828;5.688;2023-07-31T00:53:26;16.50;99.90
42245;DHT22;27912;51.828;5.688;2023-07-31T00:55:52;16.50;99.90
42245;DHT22;27912;51.828;5.688;2023-07-31T00:58:18;16.50;99.90
42245;DHT22;27912;51.828;5.688;2023-07-31T01:00:43;16.50;99.90
42245;DHT22;27912;51.828;5.688;2023-07-31T01:03:10;16.50;99.90
42245;DHT22;27912;51.828;5.688;2023-07-31T01:11:19;16.50;99.90
42245;DHT22;27912;51.828;5.688;2023-07-31T01:13:46;16.50;99.90
42245;DHT22;27912;51.828;5.688;2023-07-31T01:16:12;16.50;99.90
42245;DHT22;27912;51.828;5.688;2023-07-31T01:18:38;16.60;99.90
42245;DHT22;27912;51.828;5.688;2023-07-31T01:26:42;16.50;99.90
42245;DHT22;27912;51.828;5.688;2023-07-31T01:29:32;16.60;99.90
42245;DHT22;27912;51.828;5.688;2023-07-31T01:32:02;16.60;99.90
42245;DHT22;27912;51.828;5.688;2023-07-31T01:34:29;16.50;99.90
42245;DHT22;27912;51.828;5.688;2023-07-31T01:36:56;16.50;99.90
42245;DHT22;27912;51.828;5.688;2023-07-31T01:39:23;16.50;99.90
42245;DHT22;27912;51.828;5.688;2023-07-31T01:41:49;16.50;99.90
42245;DHT22;27912;51.828;5.688;2023-07-31T01:44:14;16.60;99.90
42245;DHT22;27912;51.828;5.688;2023-07-31T01:46:40;16.50;99.90
42245;DHT22;27912;51.828;5.688;2023-07-31T01:49:06;16.50;99.90
42245;DHT22;27912;51.828;5.688;2023-07-31T01:51:32;16.50;99.90
42245;DHT22;27912;51.828;5.688;2023-07-31T01:54:00;16.60;99.90
42245;DHT22;27912;51.828;5.688;2023-07-31T01:56:25;16.60;99.90
42245;DHT22;27912;51.828;5.688;2023-07-31T01:58:51;16.50;99.90
42245;DHT22;27912;51.828;5.688;2023-07-31T02:01:16;16.60;99.90
42245;DHT22;27912;51.828;5.688;2023-07-31T02:03:42;16.60;99.90
42245;DHT22;27912;51.828;5.688;2023-07-31T02:06:07;16.60;99.90
42245;DHT22;27912;51.828;5.688;2023-07-31T02:08:33;16.60;99.90
42245;DHT22;27912;51.828;5.688;2023-07-31T02:10:58;16.50;99.90
42245;DHT22;27912;51.828;5.688;2023-07-31T02:13:24;16.60;99.90
42245;DHT22;27912;51.828;5.688;2023-07-31T02:15:50;16.60;99.90
42245;DHT22;27912;51.828;5.688;2023-07-31T02:18:16;16.60;99.90
42245;DHT22;27912;51.828;5.688;2023-07-31T02:20:41;16.60;99.90
42245;DHT22;27912;51.828;5.688;2023-07-31T02:23:07;16.60;99.90
42245;DHT22;27912;51.828;5.688;2023-07-31T02:25:32;16.50;99.90
42245;DHT22;27912;51.828;5.688;2023-07-31T02:27:58;16.50;99.90
42245;DHT22;27912;51.828;5.688;2023-07-31T02:30:23;16.50;99.90
42245;DHT22;27912;51.828;5.688;2023-07-31T02:32:49;16.50;99.90
42245;DHT22;27912;51.828;5.688;2023-07-31T02:35:15;16.50;99.90
42245;DHT22;27912;51.828;5.688;2023-07-31T02:37:41;16.50;99.90
42245;DHT22;27912;51.828;5.688;2023-07-31T02:40:07;16.60;99.90
42245;DHT22;27912;51.828;5.688;2023-07-31T02:42:33;16.50;99.90
42245;DHT22;27912;51.828;5.688;2023-07-31T02:44:58;16.50;99.90
42245;DHT22;27912;51.828;5.688;2023-07-31T02:47:24;16.50;99.90
42245;DHT22;27912;51.828;5.688;2023-07-31T02:49:49;16.60;99.90
42245;DHT22;27912;51.828;5.688;2023-07-31T02:52:15;16.60;99.90
42245;DHT22;27912;51.828;5.688;2023-07-31T02:54:40;16.50;99.90
42245;DHT22;27912;51.828;5.688;2023-07-31T02:57:06;16.60;99.90
42245;DHT22;27912;51.828;5.688;2023-07-31T02:59:32;16.60;99.90
42245;DHT22;27912;51.828;5.688;2023-07-31T03:01:57;16.50;99.90
42245;DHT22;27912;51.828;5.688;2023-07-31T03:04:23;16.50;99.90
42245;DHT22;27912;51.828;5.688;2023-07-31T03:06:48;16.50;99.90
42245;DHT22;27912;51.828;5.688;2023-07-31T03:09:14;16.50;99.90
42245;DHT22;27912;51.828;5.688;2023-07-31T03:11:39;16.50;99.90
42245;DHT22;27912;51.828;5.688;2023-07-31T03:14:05;16.60;99.90
42245;DHT22;27912;51.828;5.688;2023-07-31T03:16:30;16.50;99.90
42245;DHT22;27912;51.828;5.688;2023-07-31T03:18:56;16.50;99.90
42245;DHT22;27912;51.828;5.688;2023-07-31T03:21:21;16.50;99.90
42245;DHT22;27912;51.828;5.688;2023-07-31T03:23:47;16.50;99.90
42245;DHT22;27912;51.828;5.688;2023-07-31T03:26:12;16.50;99.90
42245;DHT22;27912;51.828;5.688;2023-07-31T03:28:38;16.50;99.90
42245;DHT22;27912;51.828;5.688;2023-07-31T03:31:04;16.40;99.90
42245;DHT22;27912;51.828;5.688;2023-07-31T03:33:29;16.50;99.90
42245;DHT22;27912;51.828;5.688;2023-07-31T03:35:55;16.50;99.90
42245;DHT22;27912;51.828;5.688;2023-07-31T03:38:21;16.40;99.90
42245;DHT22;27912;51.828;5.688;2023-07-31T03:40:46;16.50;99.90
42245;DHT22;27912;51.828;5.688;2023-07-31T03:43:12;16.40;99.90
42245;DHT22;27912;51.828;5.688;2023-07-31T03:45:38;16.40;99.90
42245;DHT22;27912;51.828;5.688;2023-07-31T03:48:04;16.40;99.90
42245;DHT22;27912;51.828;5.688;2023-07-31T03:50:29;16.40;99.90
42245;DHT22;27912;51.828;5.688;2023-07-31T03:52:55;16.40;99.90
42245;DHT22;27912;51.828;5.688;2023-07-31T03:55:21;16.40;99.90
42245;DHT22;27912;51.828;5.688;2023-07-31T03:57:47;16.30;99.90
42245;DHT22;27912;51.828;5.688;2023-07-31T04:00:13;16.30;99.90
42245;DHT22;27912;51.828;5.688;2023-07-31T04:02:39;16.30;99.90
42245;DHT22;27912;51.828;5.688;2023-07-31T04:05:04;16.30;99.90
42245;DHT22;27912;51.828;5.688;2023-07-31T04:07:30;16.30;99.90
42245;DHT22;27912;51.828;5.688;2023-07-31T04:09:57;16.30;99.90
42245;DHT22;27912;51.828;5.688;2023-07-31T04:12:23;16.30;99.90
42245;DHT22;27912;51.828;5.688;2023-07-31T04:14:48;16.30;99.90
42245;DHT22;27912;51.828;5.688;2023-07-31T04:17:14;16.30;99.90
42245;DHT22;27912;51.828;5.688;2023-07-31T04:19:40;16.30;99.90
42245;DHT22;27912;51.828;5.688;2023-07-31T04:22:05;16.30;99.90
42245;DHT22;27912;51.828;5.688;2023-07-31T04:24:31;16.30;99.90
42245;DHT22;27912;51.828;5.688;2023-07-31T04:26:56;16.30;99.90
42245;DHT22;27912;51.828;5.688;2023-07-31T04:29:22;16.30;99.90
42245;DHT22;27912;51.828;5.688;2023-07-31T04:31:48;16.40;99.90
42245;DHT22;27912;51.828;5.688;2023-07-31T04:34:14;16.30;99.90
42245;DHT22;27912;51.828;5.688;2023-07-31T04:36:39;16.40;99.90
42245;DHT22;27912;51.828;5.688;2023-07-31T04:39:05;16.30;99.90
42245;DHT22;27912;51.828;5.688;2023-07-31T04:41:31;16.30;99.90
42245;DHT22;27912;51.828;5.688;2023-07-31T04:43:57;16.40;99.90
42245;DHT22;27912;51.828;5.688;2023-07-31T04:46:22;16.40;99.90
42245;DHT22;27912;51.828;5.688;2023-07-31T04:48:48;16.40;99.90
42245;DHT22;27912;51.828;5.688;2023-07-31T04:51:14;16.40;99.90
42245;DHT22;27912;51.828;5.688;2023-07-31T04:53:39;16.40;99.90
42245;DHT22;27912;51.828;5.688;2023-07-31T04:56:05;16.40;99.90
42245;DHT22;27912;51.828;5.688;2023-07-31T04:58:31;16.40;99.90
42245;DHT22;27912;51.828;5.688;2023-07-31T05:00:56;16.40;99.90
42245;DHT22;27912;51.828;5.688;2023-07-31T05:03:22;16.50;99.90
42245;DHT22;27912;51.828;5.688;2023-07-31T05:05:47;16.40;99.90
42245;DHT22;27912;51.828;5.688;2023-07-31T05:08:13;16.50;99.90
42245;DHT22;27912;51.828;5.688;2023-07-31T05:10:38;16.50;99.90
42245;DHT22;27912;51.828;5.688;2023-07-31T05:13:04;16.50;99.90
42245;DHT22;27912;51.828;5.688;2023-07-31T05:15:30;16.50;99.90
42245;DHT22;27912;51.828;5.688;2023-07-31T05:17:56;16.40;99.90
42245;DHT22;27912;51.828;5.688;2023-07-31T05:20:22;16.40;99.90
42245;DHT22;27912;51.828;5.688;2023-07-31T05:22:47;16.40;99.90
42245;DHT22;27912;51.828;5.688;2023-07-31T05:25:13;16.40;99.90
42245;DHT22;27912;51.828;5.688;2023-07-31T05:27:38;16.30;99.90
42245;DHT22;27912;51.828;5.688;2023-07-31T05:30:05;16.40;99.90
42245;DHT22;27912;51.828;5.688;2023-07-31T05:32:30;16.40;99.90
42245;DHT22;27912;51.828;5.688;2023-07-31T05:34:56;16.40;99.90
42245;DHT22;27912;51.828;5.688;2023-07-31T05:37:22;16.40;99.90
42245;DHT22;27912;51.828;5.688;2023-07-31T05:39:47;16.40;99.90
42245;DHT22;27912;51.828;5.688;2023-07-31T05:42:13;16.30;99.90
42245;DHT22;27912;51.828;5.688;2023-07-31T05:44:39;16.30;99.90
42245;DHT22;27912;51.828;5.688;2023-07-31T05:47:04;16.30;99.90
42245;DHT22;27912;51.828;5.688;2023-07-31T05:49:30;16.30;99.90
42245;DHT22;27912;51.828;5.688;2023-07-31T05:51:56;16.20;99.90
42245;DHT22;27912;51.828;5.688;2023-07-31T05:54:22;16.30;99.90
42245;DHT22;27912;51.828;5.688;2023-07-31T05:56:47;16.30;99.90
42245;DHT22;27912;51.828;5.688;2023-07-31T05:59:13;16.30;99.90
42245;DHT22;27912;51.828;5.688;2023-07-31T06:01:39;16.30;99.90
42245;DHT22;27912;51.828;5.688;2023-07-31T06:04:05;16.30;99.90
42245;DHT22;27912;51.828;5.688;2023-07-31T06:06:31;16.40;99.90
42245;DHT22;27912;51.828;5.688;2023-07-31T06:08:56;16.40;99.90
42245;DHT22;27912;51.828;5.688;2023-07-31T06:11:22;16.40;99.90
42245;DHT22;27912;51.828;5.688;2023-07-31T06:13:48;16.40;99.90
42245;DHT22;27912;51.828;5.688;2023-07-31T06:16:14;16.50;99.90
42245;DHT22;27912;51.828;5.688;2023-07-31T06:18:41;16.50;99.90
42245;DHT22;27912;51.828;5.688;2023-07-31T06:21:07;16.60;99.90
42245;DHT22;27912;51.828;5.688;2023-07-31T06:23:32;16.60;99.90
42245;DHT22;27912;51.828;5.688;2023-07-31T06:25:58;16.70;99.90
42245;DHT22;27912;51.828;5.688;2023-07-31T06:28:31;16.70;99.90
42245;DHT22;27912;51.828;5.688;2023-07-31T06:30:57;16.70;99.90
42245;DHT22;27912;51.828;5.688;2023-07-31T06:33:23;16.70;99.90
42245;DHT22;27912;51.828;5.688;2023-07-31T06:35:49;16.70;99.90
42245;DHT22;27912;51.828;5.688;2023-07-31T06:38:14;16.70;99.90
42245;DHT22;27912;51.828;5.688;2023-07-31T06:40:40;16.70;99.90
42245;DHT22;27912;51.828;5.688;2023-07-31T06:43:06;16.70;99.90
42245;DHT22;27912;51.828;5.688;2023-07-31T06:45:35;16.70;99.90
42245;DHT22;27912;51.828;5.688;2023-07-31T06:48:01;16.70;99.90
42245;DHT22;27912;51.828;5.688;2023-07-31T06:50:28;16.70;99.90
42245;DHT22;27912;51.828;5.688;2023-07-31T06:52:53;16.80;99.90
42245;DHT22;27912;51.828;5.688;2023-07-31T06:55:20;16.80;99.90
42245;DHT22;27912;51.828;5.688;2023-07-31T06:57:50;16.80;99.90
42245;DHT22;27912;51.828;5.688;2023-07-31T07:00:17;16.80;99.90
42245;DHT22;27912;51.828;5.688;2023-07-31T07:02:42;16.90;99.90
42245;DHT22;27912;51.828;5.688;2023-07-31T07:05:08;16.90;99.90
42245;DHT22;27912;51.828;5.688;2023-07-31T07:07:34;16.90;99.90
42245;DHT22;27912;51.828;5.688;2023-07-31T07:10:00;16.90;99.90
42245;DHT22;27912;51.828;5.688;2023-07-31T07:12:29;17.00;99.90
42245;DHT22;27912;51.828;5.688;2023-07-31T07:14:54;17.00;99.90
42245;DHT22;27912;51.828;5.688;2023-07-31T07:17:20;17.00;99.90
42245;DHT22;27912;51.828;5.688;2023-07-31T07:19:45;17.00;99.90
42245;DHT22;27912;51.828;5.688;2023-07-31T07:22:13;17.10;99.90
42245;DHT22;27912;51.828;5.688;2023-07-31T07:24:38;17.10;99.90
42245;DHT22;27912;51.828;5.688;2023-07-31T07:27:04;17.10;99.90
42245;DHT22;27912;51.828;5.688;2023-07-31T07:29:30;17.10;99.90
42245;DHT22;27912;51.828;5.688;2023-07-31T07:31:55;17.10;99.90
42245;DHT22;27912;51.828;5.688;2023-07-31T07:34:27;17.10;99.90
42245;DHT22;27912;51.828;5.688;2023-07-31T07:36:54;17.10;99.90
42245;DHT22;27912;51.828;5.688;2023-07-31T07:39:19;17.10;99.90
42245;DHT22;27912;51.828;5.688;2023-07-31T07:41:46;17.10;99.90
42245;DHT22;27912;51.828;5.688;2023-07-31T07:44:12;17.10;99.90
42245;DHT22;27912;51.828;5.688;2023-07-31T07:46:37;17.10;99.90
42245;DHT22;27912;51.828;5.688;2023-07-31T07:49:03;17.10;99.90
42245;DHT22;27912;51.828;5.688;2023-07-31T07:51:29;17.10;99.90
42245;DHT22;27912;51.828;5.688;2023-07-31T07:53:57;17.10;99.90
42245;DHT22;27912;51.828;5.688;2023-07-31T07:56:23;17.10;99.90
42245;DHT22;27912;51.828;5.688;2023-07-31T07:58:50;17.20;99.90
42245;DHT22;27912;51.828;5.688;2023-07-31T08:01:16;17.20;99.90
42245;DHT22;27912;51.828;5.688;2023-07-31T08:03:42;17.20;99.90
42245;DHT22;27912;51.828;5.688;2023-07-31T08:06:08;17.20;99.90
42245;DHT22;27912;51.828;5.688;2023-07-31T08:08:35;17.30;99.90
42245;DHT22;27912;51.828;5.688;2023-07-31T08:11:00;17.30;99.90
42245;DHT22;27912;51.828;5.688;2023-07-31T08:13:26;17.30;99.90
42245;DHT22;27912;51.828;5.688;2023-07-31T08:15:51;17.30;99.90
42245;DHT22;27912;51.828;5.688;2023-07-31T08:18:17;17.30;99.90
42245;DHT22;27912;51.828;5.688;2023-07-31T08:20:43;17.20;99.90
42245;DHT22;27912;51.828;5.688;2023-07-31T08:23:09;17.20;99.90
42245;DHT22;27912;51.828;5.688;2023-07-31T08:25:35;17.20;99.90
42245;DHT22;27912;51.828;5.688;2023-07-31T08:28:02;17.20;99.90
42245;DHT22;27912;51.828;5.688;2023-07-31T08:30:27;17.20;99.90
42245;DHT22;27912;51.828;5.688;2023-07-31T08:32:53;17.20;99.90
42245;DHT22;27912;51.828;5.688;2023-07-31T08:35:18;17.30;99.90
42245;DHT22;27912;51.828;5.688;2023-07-31T08:37:44;17.30;99.90
42245;DHT22;27912;51.828;5.688;2023-07-31T08:40:09;17.40;99.90
42245;DHT22;27912;51.828;5.688;2023-07-31T08:42:43;17.40;99.90
42245;DHT22;27912;51.828;5.688;2023-07-31T08:45:14;17.40;99.90
42245;DHT22;27912;51.828;5.688;2023-07-31T08:47:44;17.40;99.90
42245;DHT22;27912;51.828;5.688;2023-07-31T08:50:12;17.40;99.90
42245;DHT22;27912;51.828;5.688;2023-07-31T08:52:38;17.40;99.90
42245;DHT22;27912;51.828;5.688;2023-07-31T08:55:05;17.40;99.90
42245;DHT22;27912;51.828;5.688;2023-07-31T08:57:31;17.40;99.90
42245;DHT22;27912;51.828;5.688;2023-07-31T08:59:59;17.40;99.90
42245;DHT22;27912;51.828;5.688;2023-07-31T09:02:31;17.40;99.90
42245;DHT22;27912;51.828;5.688;2023-07-31T09:05:00;17.40;99.90
42245;DHT22;27912;51.828;5.688;2023-07-31T09:07:26;17.40;99.90
42245;DHT22;27912;51.828;5.688;2023-07-31T09:09:53;17.40;99.90
42245;DHT22;27912;51.828;5.688;2023-07-31T09:12:19;17.40;99.90
42245;DHT22;27912;51.828;5.688;2023-07-31T09:14:45;17.40;99.90
42245;DHT22;27912;51.828;5.688;2023-07-31T09:17:11;17.40;99.90
42245;DHT22;27912;51.828;5.688;2023-07-31T09:19:37;17.40;99.90
42245;DHT22;27912;51.828;5.688;2023-07-31T09:22:04;17.50;99.90
42245;DHT22;27912;51.828;5.688;2023-07-31T09:24:31;17.50;99.90
42245;DHT22;27912;51.828;5.688;2023-07-31T09:27:00;17.50;99.90
42245;DHT22;27912;51.828;5.688;2023-07-31T09:29:27;17.50;99.90
42245;DHT22;27912;51.828;5.688;2023-07-31T09:31:54;17.50;99.90
42245;DHT22;27912;51.828;5.688;2023-07-31T09:34:20;17.50;99.90
42245;DHT22;27912;51.828;5.688;2023-07-31T09:36:53;17.50;99.90
42245;DHT22;27912;51.828;5.688;2023-07-31T09:39:19;17.50;99.90
42245;DHT22;27912;51.828;5.688;2023-07-31T09:41:54;17.50;99.90
42245;DHT22;27912;51.828;5.688;2023-07-31T09:44:38;17.60;99.90
42245;DHT22;27912;51.828;5.688;2023-07-31T09:47:06;17.60;99.90
42245;DHT22;27912;51.828;5.688;2023-07-31T09:49:31;17.60;99.90
42245;DHT22;27912;51.828;5.688;2023-07-31T09:51:57;17.70;99.90
42245;DHT22;27912;51.828;5.688;2023-07-31T09:54:22;17.70;99.90
42245;DHT22;27912;51.828;5.688;2023-07-31T09:56:49;17.80;99.90
42245;DHT22;27912;51.828;5.688;2023-07-31T09:59:16;17.80;99.90
42245;DHT22;27912;51.828;5.688;2023-07-31T10:01:43;17.80;99.90
42245;DHT22;27912;51.828;5.688;2023-07-31T10:04:10;17.80;99.90
42245;DHT22;27912;51.828;5.688;2023-07-31T10:06:37;17.90;99.90
42245;DHT22;27912;51.828;5.688;2023-07-31T10:09:06;18.00;99.90
42245;DHT22;27912;51.828;5.688;2023-07-31T10:11:41;18.00;99.90
42245;DHT22;27912;51.828;5.688;2023-07-31T10:14:07;18.20;99.90
42245;DHT22;27912;51.828;5.688;2023-07-31T10:16:37;18.40;99.90
42245;DHT22;27912;51.828;5.688;2023-07-31T10:19:02;18.60;99.90
42245;DHT22;27912;51.828;5.688;2023-07-31T10:21:29;18.80;99.90
42245;DHT22;27912;51.828;5.688;2023-07-31T10:23:55;18.90;99.90
42245;DHT22;27912;51.828;5.688;2023-07-31T10:26:23;19.10;99.90
42245;DHT22;27912;51.828;5.688;2023-07-31T10:28:51;19.20;99.90
42245;DHT22;27912;51.828;5.688;2023-07-31T10:31:18;19.30;99.90
42245;DHT22;27912;51.828;5.688;2023-07-31T10:33:45;19.40;99.90
42245;DHT22;27912;51.828;5.688;2023-07-31T10:36:16;19.40;99.90
42245;DHT22;27912;51.828;5.688;2023-07-31T10:38:42;19.50;99.90
42245;DHT22;27912;51.828;5.688;2023-07-31T10:41:08;19.60;99.90
42245;DHT22;27912;51.828;5.688;2023-07-31T10:43:34;19.60;99.90
42245;DHT22;27912;51.828;5.688;2023-07-31T10:46:07;19.70;99.90
42245;DHT22;27912;51.828;5.688;2023-07-31T10:48:34;19.70;99.90
42245;DHT22;27912;51.828;5.688;2023-07-31T10:51:00;19.60;99.90
42245;DHT22;27912;51.828;5.688;2023-07-31T10:53:30;19.60;99.90
42245;DHT22;27912;51.828;5.688;2023-07-31T10:56:00;19.50;99.90
42245;DHT22;27912;51.828;5.688;2023-07-31T10:58:27;19.50;99.90
42245;DHT22;27912;51.828;5.688;2023-07-31T11:00:56;19.50;99.90
42245;DHT22;27912;51.828;5.688;2023-07-31T11:03:26;19.40;99.90
42245;DHT22;27912;51.828;5.688;2023-07-31T11:05:53;19.30;99.90
42245;DHT22;27912;51.828;5.688;2023-07-31T11:08:26;19.20;99.90
42245;DHT22;27912;51.828;5.688;2023-07-31T11:14:10;19.10;99.90
42245;DHT22;27912;51.828;5.688;2023-07-31T11:16:18;19.10;99.90
42245;DHT22;27912;51.828;5.688;2023-07-31T11:18:45;19.00;99.90
42245;DHT22;27912;51.828;5.688;2023-07-31T11:21:23;19.00;99.90
42245;DHT22;27912;51.828;5.688;2023-07-31T11:23:51;19.00;99.90
42245;DHT22;27912;51.828;5.688;2023-07-31T11:26:18;19.00;99.90
42245;DHT22;27912;51.828;5.688;2023-07-31T11:28:47;19.00;99.90
42245;DHT22;27912;51.828;5.688;2023-07-31T11:31:13;19.10;99.90
42245;DHT22;27912;51.828;5.688;2023-07-31T11:33:38;19.00;99.90
42245;DHT22;27912;51.828;5.688;2023-07-31T11:36:04;19.10;99.90
42245;DHT22;27912;51.828;5.688;2023-07-31T11:38:33;19.10;99.90
42245;DHT22;27912;51.828;5.688;2023-07-31T11:41:01;19.10;99.90
42245;DHT22;27912;51.828;5.688;2023-07-31T11:43:30;19.20;99.90
42245;DHT22;27912;51.828;5.688;2023-07-31T11:45:58;19.20;99.90
42245;DHT22;27912;51.828;5.688;2023-07-31T11:48:26;19.30;99.90
42245;DHT22;27912;51.828;5.688;2023-07-31T11:50:54;19.30;99.90
42245;DHT22;27912;51.828;5.688;2023-07-31T11:53:26;19.40;99.90
42245;DHT22;27912;51.828;5.688;2023-07-31T11:55:54;19.50;99.90
42245;DHT22;27912;51.828;5.688;2023-07-31T11:58:20;19.60;99.90
42245;DHT22;27912;51.828;5.688;2023-07-31T12:00:46;19.60;99.90
42245;DHT22;27912;51.828;5.688;2023-07-31T12:03:12;19.60;99.90
42245;DHT22;27912;51.828;5.688;2023-07-31T12:05:38;19.60;99.90
42245;DHT22;27912;51.828;5.688;2023-07-31T12:08:09;19.60;99.90
42245;DHT22;27912;51.828;5.688;2023-07-31T12:10:36;19.60;99.90
42245;DHT22;27912;51.828;5.688;2023-07-31T12:13:12;19.60;99.90
42245;DHT22;27912;51.828;5.688;2023-07-31T12:15:45;19.60;99.90
42245;DHT22;27912;51.828;5.688;2023-07-31T12:18:15;19.40;99.90
42245;DHT22;27912;51.828;5.688;2023-07-31T12:20:57;19.40;99.90
42245;DHT22;27912;51.828;5.688;2023-07-31T12:23:27;19.30;99.90
42245;DHT22;27912;51.828;5.688;2023-07-31T12:26:15;19.20;99.90
42245;DHT22;27912;51.828;5.688;2023-07-31T12:28:45;19.20;99.90
42245;DHT22;27912;51.828;5.688;2023-07-31T12:31:13;19.10;99.90
42245;DHT22;27912;51.828;5.688;2023-07-31T12:33:40;19.00;99.90
42245;DHT22;27912;51.828;5.688;2023-07-31T12:36:14;19.00;99.90
42245;DHT22;27912;51.828;5.688;2023-07-31T12:38:40;19.10;99.90
42245;DHT22;27912;51.828;5.688;2023-07-31T12:41:06;19.10;99.90
42245;DHT22;27912;51.828;5.688;2023-07-31T12:43:36;19.10;99.90
42245;DHT22;27912;51.828;5.688;2023-07-31T12:46:01;19.00;99.90
42245;DHT22;27912;51.828;5.688;2023-07-31T12:48:27;19.10;99.90
42245;DHT22;27912;51.828;5.688;2023-07-31T12:50:53;19.10;99.90
42245;DHT22;27912;51.828;5.688;2023-07-31T12:53:18;19.20;99.90
42245;DHT22;27912;51.828;5.688;2023-07-31T12:55:44;19.30;99.90
42245;DHT22;27912;51.828;5.688;2023-07-31T12:58:10;19.40;99.90
42245;DHT22;27912;51.828;5.688;2023-07-31T13:00:35;19.40;99.90
42245;DHT22;27912;51.828;5.688;2023-07-31T13:03:01;19.40;99.90
42245;DHT22;27912;51.828;5.688;2023-07-31T13:05:27;19.40;99.90
42245;DHT22;27912;51.828;5.688;2023-07-31T13:07:53;19.40;99.90
42245;DHT22;27912;51.828;5.688;2023-07-31T13:10:19;19.40;99.90
42245;DHT22;27912;51.828;5.688;2023-07-31T13:12:44;19.30;99.90
42245;DHT22;27912;51.828;5.688;2023-07-31T13:15:10;19.30;99.90
42245;DHT22;27912;51.828;5.688;2023-07-31T13:17:36;19.30;99.90
42245;DHT22;27912;51.828;5.688;2023-07-31T13:20:03;19.30;99.90
42245;DHT22;27912;51.828;5.688;2023-07-31T13:22:29;19.30;99.90
42245;DHT22;27912;51.828;5.688;2023-07-31T13:24:55;19.30;99.90
42245;DHT22;27912;51.828;5.688;2023-07-31T13:27:21;19.30;99.90
42245;DHT22;27912;51.828;5.688;2023-07-31T13:29:51;19.30;99.90
42245;DHT22;27912;51.828;5.688;2023-07-31T13:32:17;19.30;99.90
42245;DHT22;27912;51.828;5.688;2023-07-31T13:34:44;19.30;99.90
42245;DHT22;27912;51.828;5.688;2023-07-31T13:37:10;19.30;99.90
42245;DHT22;27912;51.828;5.688;2023-07-31T13:39:36;19.40;99.90
42245;DHT22;27912;51.828;5.688;2023-07-31T13:42:03;19.40;99.90
42245;DHT22;27912;51.828;5.688;2023-07-31T13:44:29;19.60;99.90
42245;DHT22;27912;51.828;5.688;2023-07-31T13:46:54;19.80;99.90
42245;DHT22;27912;51.828;5.688;2023-07-31T13:49:20;20.00;99.90
42245;DHT22;27912;51.828;5.688;2023-07-31T13:51:45;20.10;99.90
42245;DHT22;27912;51.828;5.688;2023-07-31T13:54:11;20.20;99.90
42245;DHT22;27912;51.828;5.688;2023-07-31T13:56:42;20.30;99.90
42245;DHT22;27912;51.828;5.688;2023-07-31T13:59:11;20.30;99.90
42245;DHT22;27912;51.828;5.688;2023-07-31T14:01:37;20.20;99.90
42245;DHT22;27912;51.828;5.688;2023-07-31T14:04:02;20.20;99.90
42245;DHT22;27912;51.828;5.688;2023-07-31T14:06:28;20.10;99.90
42245;DHT22;27912;51.828;5.688;2023-07-31T14:08:54;20.00;99.90
42245;DHT22;27912;51.828;5.688;2023-07-31T14:11:21;19.90;99.90
42245;DHT22;27912;51.828;5.688;2023-07-31T14:13:47;19.90;99.90
42245;DHT22;27912;51.828;5.688;2023-07-31T14:16:12;19.90;99.90
42245;DHT22;27912;51.828;5.688;2023-07-31T14:18:38;19.90;99.90
42245;DHT22;27912;51.828;5.688;2023-07-31T14:21:03;19.80;99.90
42245;DHT22;27912;51.828;5.688;2023-07-31T14:23:29;19.80;99.90
42245;DHT22;27912;51.828;5.688;2023-07-31T14:25:55;19.80;99.90
42245;DHT22;27912;51.828;5.688;2023-07-31T14:28:20;19.60;99.90
42245;DHT22;27912;51.828;5.688;2023-07-31T14:30:46;19.50;99.90
42245;DHT22;27912;51.828;5.688;2023-07-31T14:33:11;19.40;99.90
42245;DHT22;27912;51.828;5.688;2023-07-31T14:35:37;19.30;99.90
42245;DHT22;27912;51.828;5.688;2023-07-31T14:38:02;19.30;99.90
42245;DHT22;27912;51.828;5.688;2023-07-31T14:40:28;19.20;99.90
42245;DHT22;27912;51.828;5.688;2023-07-31T14:42:53;19.20;99.90
42245;DHT22;27912;51.828;5.688;2023-07-31T14:45:19;19.20;99.90
42245;DHT22;27912;51.828;5.688;2023-07-31T14:47:44;19.20;99.90
42245;DHT22;27912;51.828;5.688;2023-07-31T14:50:10;19.20;99.90
42245;DHT22;27912;51.828;5.688;2023-07-31T14:52:36;19.10;99.90
42245;DHT22;27912;51.828;5.688;2023-07-31T14:55:01;19.10;99.90
42245;DHT22;27912;51.828;5.688;2023-07-31T14:57:27;19.10;99.90
42245;DHT22;27912;51.828;5.688;2023-07-31T14:59:53;19.10;99.90
42245;DHT22;27912;51.828;5.688;2023-07-31T15:02:18;19.10;99.90
42245;DHT22;27912;51.828;5.688;2023-07-31T15:04:44;19.10;99.90
42245;DHT22;27912;51.828;5.688;2023-07-31T15:07:09;19.10;99.90
42245;DHT22;27912;51.828;5.688;2023-07-31T15:09:35;19.10;99.90
42245;DHT22;27912;51.828;5.688;2023-07-31T15:12:01;19.00;99.90
42245;DHT22;27912;51.828;5.688;2023-07-31T15:14:26;19.00;99.90
42245;DHT22;27912;51.828;5.688;2023-07-31T15:16:56;19.00;99.90
42245;DHT22;27912;51.828;5.688;2023-07-31T15:19:22;19.00;99.90
42245;DHT22;27912;51.828;5.688;2023-07-31T15:21:48;19.00;99.90
42245;DHT22;27912;51.828;5.688;2023-07-31T15:24:14;19.00;99.90
42245;DHT22;27912;51.828;5.688;2023-07-31T15:26:40;19.00;99.90
42245;DHT22;27912;51.828;5.688;2023-07-31T15:29:07;18.90;99.90
42245;DHT22;27912;51.828;5.688;2023-07-31T15:31:41;18.90;99.90
42245;DHT22;27912;51.828;5.688;2023-07-31T15:34:07;18.90;99.90
42245;DHT22;27912;51.828;5.688;2023-07-31T15:36:33;18.90;99.90
42245;DHT22;27912;51.828;5.688;2023-07-31T15:38:58;18.90;99.90